Time;durP1;ratioP1;P1;durP2;ratioP2;P2;SDS_P1;SDS_P2;PMS_P1;PMS_P2;Temp;Humidity;BMP_temperature;BMP_pressure;BME280_temperature;BME280_humidity;BME280_pressure;Samples;Min_cycle;Max_cycle;Signal;HPM_P1;HPM_P2
2021/10/30 00:02:00;;;;;;;4.03;0.77;;;6.80;99.90;;;;;;5064046;28;20231;-80
2021/10/30 00:04:26;;;;;;;1.60;1.13;;;6.90;99.90;;;;;;5057999;28;20178;-80
2021/10/30 00:06:53;;;;;;;0.60;0.60;;;6.80;99.90;;;;;;5062389;28;20180;-80
2021/10/30 00:09:18;;;;;;;0.57;0.50;;;6.80;99.90;;;;;;5069141;28;20189;-80
2021/10/30 00:11:44;;;;;;;0.90;0.50;;;6.80;99.90;;;;;;5058859;28;20178;-80
2021/10/30 00:14:10;;;;;;;0.93;0.50;;;6.70;99.90;;;;;;5064038;28;20185;-80
2021/10/30 00:16:35;;;;;;;0.43;0.43;;;6.60;99.90;;;;;;5061362;28;20593;-80
2021/10/30 00:19:01;;;;;;;0.90;0.90;;;6.60;99.90;;;;;;5071000;28;20598;-79
2021/10/30 00:21:26;;;;;;;0.83;0.47;;;6.50;99.90;;;;;;5056190;28;20185;-80
2021/10/30 00:23:52;;;;;;;0.70;0.70;;;6.50;99.90;;;;;;5067578;28;20198;-80
2021/10/30 00:26:18;;;;;;;1.23;0.43;;;6.60;99.90;;;;;;5065093;28;20182;-79
2021/10/30 00:28:44;;;;;;;0.70;0.70;;;6.60;99.90;;;;;;5051311;28;20216;-80
2021/10/30 00:31:10;;;;;;;0.67;0.63;;;6.70;99.90;;;;;;5065712;28;20578;-79
2021/10/30 00:33:36;;;;;;;0.70;0.70;;;6.80;99.90;;;;;;5065029;28;20272;-80
2021/10/30 00:36:01;;;;;;;0.97;0.60;;;6.80;99.90;;;;;;5064762;28;20173;-80
2021/10/30 00:38:27;;;;;;;0.50;0.50;;;6.80;99.90;;;;;;5060950;28;20556;-79
2021/10/30 00:40:52;;;;;;;0.40;0.40;;;6.90;99.90;;;;;;5054543;28;20178;-80
2021/10/30 00:43:18;;;;;;;1.37;0.60;;;6.80;99.90;;;;;;5066074;28;20204;-80
2021/10/30 00:45:47;;;;;;;0.67;0.67;;;6.80;99.90;;;;;;5065070;28;20197;-79
2021/10/30 00:48:13;;;;;;;0.37;0.33;;;6.90;99.90;;;;;;5065863;28;20165;-80
2021/10/30 00:50:39;;;;;;;1.17;1.10;;;6.80;99.90;;;;;;5055890;28;20211;-79
2021/10/30 00:53:06;;;;;;;0.80;0.80;;;6.90;99.90;;;;;;5064646;28;20226;-80
2021/10/30 00:55:32;;;;;;;0.73;0.57;;;6.90;99.90;;;;;;5065648;28;20178;-80
2021/10/30 00:57:59;;;;;;;1.40;1.13;;;6.90;99.90;;;;;;5057801;28;20272;-80
2021/10/30 01:00:25;;;;;;;0.40;0.40;;;6.90;99.90;;;;;;5055243;28;20204;-80
2021/10/30 01:02:51;;;;;;;3.77;1.00;;;6.80;99.90;;;;;;5069223;28;20202;-80
2021/10/30 01:05:17;;;;;;;0.77;0.77;;;6.90;99.90;;;;;;5066451;28;20182;-80
2021/10/30 01:07:43;;;;;;;0.70;0.70;;;6.90;99.90;;;;;;5062075;28;20188;-80
2021/10/30 01:10:09;;;;;;;1.23;0.50;;;7.00;99.90;;;;;;5050763;28;20233;-80
2021/10/30 01:12:34;;;;;;;0.47;0.47;;;7.00;99.90;;;;;;5060126;28;20173;-80
2021/10/30 01:15:03;;;;;;;1.33;1.20;;;7.10;99.90;;;;;;5056538;28;20217;-80
2021/10/30 01:17:29;;;;;;;0.30;0.30;;;7.20;99.90;;;;;;5058043;28;20199;-80
2021/10/30 01:19:55;;;;;;;0.87;0.87;;;7.00;99.90;;;;;;5058740;28;20730;-80
2021/10/30 01:22:21;;;;;;;1.07;0.70;;;6.90;99.90;;;;;;5053477;28;20582;-80
2021/10/30 01:24:48;;;;;;;0.60;0.60;;;6.90;99.90;;;;;;5060289;28;20200;-80
2021/10/30 01:27:16;;;;;;;1.53;0.73;;;6.70;99.90;;;;;;5060097;28;20178;-80
2021/10/30 01:29:42;;;;;;;1.37;0.87;;;6.70;99.90;;;;;;5059847;28;20212;-79
2021/10/30 01:32:08;;;;;;;0.93;0.87;;;6.70;99.90;;;;;;5040197;28;20188;-80
2021/10/30 01:34:33;;;;;;;0.33;0.33;;;6.70;99.90;;;;;;5061539;28;20170;-80
2021/10/30 01:36:59;;;;;;;2.60;1.30;;;6.60;99.90;;;;;;5055286;28;20197;-80
2021/10/30 01:39:25;;;;;;;0.70;0.70;;;6.60;99.90;;;;;;5045870;28;20208;-80
2021/10/30 01:41:52;;;;;;;0.93;0.93;;;6.50;99.90;;;;;;5048691;28;20174;-80
2021/10/30 01:44:17;;;;;;;1.13;0.97;;;6.40;99.90;;;;;;5053653;28;20254;-80
2021/10/30 01:46:43;;;;;;;0.73;0.73;;;6.40;99.90;;;;;;5052830;28;20177;-80
2021/10/30 01:49:08;;;;;;;0.60;0.60;;;6.40;99.90;;;;;;5063909;28;20189;-79
2021/10/30 01:51:34;;;;;;;1.90;0.50;;;6.30;99.90;;;;;;5063329;28;20188;-80
2021/10/30 01:54:00;;;;;;;2.07;0.83;;;6.20;99.90;;;;;;5059475;28;20205;-80
2021/10/30 01:56:26;;;;;;;0.63;0.57;;;6.30;99.90;;;;;;5065583;28;20230;-80
2021/10/30 01:58:52;;;;;;;0.67;0.67;;;6.30;99.90;;;;;;5062637;28;20621;-80
2021/10/30 02:01:18;;;;;;;0.40;0.23;;;6.40;99.90;;;;;;5064916;28;20181;-80
2021/10/30 02:03:43;;;;;;;0.30;0.30;;;6.50;99.90;;;;;;5052220;28;20578;-80
2021/10/30 02:06:09;;;;;;;1.90;1.53;;;6.50;99.90;;;;;;5050012;28;20174;-79
2021/10/30 02:08:36;;;;;;;1.57;0.97;;;6.70;99.90;;;;;;5057487;28;20209;-80
2021/10/30 02:11:02;;;;;;;1.67;0.90;;;6.80;99.90;;;;;;5066045;28;20543;-80
2021/10/30 02:13:28;;;;;;;0.77;0.70;;;6.90;99.90;;;;;;5055663;28;20185;-80
2021/10/30 02:15:53;;;;;;;0.60;0.60;;;6.80;99.90;;;;;;5052713;28;20195;-80
2021/10/30 02:18:20;;;;;;;1.70;1.57;;;6.90;99.90;;;;;;5058056;28;20608;-79
2021/10/30 02:20:46;;;;;;;0.60;0.60;;;6.90;99.90;;;;;;5061851;28;20681;-80
2021/10/30 02:23:12;;;;;;;0.30;0.30;;;6.80;99.90;;;;;;5063022;28;20203;-80
2021/10/30 02:25:38;;;;;;;0.50;0.50;;;6.80;99.90;;;;;;5050620;28;20225;-80
2021/10/30 02:28:03;;;;;;;1.57;1.30;;;6.10;99.90;;;;;;5055805;28;20638;-80
2021/10/30 02:30:29;;;;;;;0.60;0.60;;;5.70;99.90;;;;;;5059740;28;20196;-79
2021/10/30 02:32:55;;;;;;;0.47;0.47;;;5.60;99.90;;;;;;5060667;28;20177;-80
2021/10/30 02:35:20;;;;;;;1.20;0.90;;;5.40;99.90;;;;;;5056677;28;20182;-80
2021/10/30 02:37:46;;;;;;;1.30;1.10;;;5.60;99.90;;;;;;5059190;28;20181;-79
2021/10/30 02:40:12;;;;;;;1.67;0.87;;;5.70;99.90;;;;;;5067606;28;20276;-80
2021/10/30 02:42:39;;;;;;;1.13;1.00;;;5.90;99.90;;;;;;5058656;28;20210;-79
2021/10/30 02:45:06;;;;;;;0.27;0.27;;;6.00;99.90;;;;;;5060616;28;20165;-79
2021/10/30 02:47:32;;;;;;;0.20;0.20;;;5.80;99.90;;;;;;5060512;28;20666;-79
2021/10/30 02:49:58;;;;;;;0.30;0.30;;;6.00;99.90;;;;;;5065990;28;20220;-80
2021/10/30 02:52:24;;;;;;;2.93;0.90;;;6.10;99.90;;;;;;5059629;28;20679;-80
2021/10/30 02:54:50;;;;;;;1.00;0.73;;;6.20;99.90;;;;;;5062652;28;20795;-80
2021/10/30 02:57:15;;;;;;;0.50;0.50;;;6.40;99.90;;;;;;5055737;28;20220;-80
2021/10/30 02:59:41;;;;;;;0.70;0.40;;;6.50;99.90;;;;;;5095691;28;20201;-79
2021/10/30 03:02:06;;;;;;;7.07;1.30;;;6.60;99.90;;;;;;5062232;28;20181;-80
2021/10/30 03:04:32;;;;;;;1.80;0.30;;;6.70;99.90;;;;;;5055186;28;20174;-80
2021/10/30 03:06:58;;;;;;;0.30;0.30;;;6.80;99.90;;;;;;5055570;28;20180;-80
2021/10/30 03:09:24;;;;;;;9.23;0.90;;;6.90;99.90;;;;;;5061148;28;20276;-80
2021/10/30 03:11:49;;;;;;;0.40;0.30;;;6.90;99.90;;;;;;5059009;28;20535;-80
2021/10/30 03:14:15;;;;;;;0.53;0.53;;;7.10;99.90;;;;;;5063104;28;20235;-80
2021/10/30 03:16:41;;;;;;;0.57;0.50;;;7.10;99.90;;;;;;5050591;28;20194;-80
2021/10/30 03:19:06;;;;;;;0.53;0.53;;;7.10;99.90;;;;;;5066545;28;20198;-79
2021/10/30 03:21:33;;;;;;;0.40;0.37;;;7.00;99.90;;;;;;5046418;28;20557;-80
2021/10/30 03:23:58;;;;;;;1.63;0.50;;;6.70;99.90;;;;;;5069057;28;20194;-79
2021/10/30 03:26:24;;;;;;;2.70;1.40;;;6.80;99.90;;;;;;5054511;28;20187;-80
2021/10/30 03:28:50;;;;;;;0.70;0.70;;;7.00;99.90;;;;;;5064384;28;20667;-80
2021/10/30 03:31:16;;;;;;;0.33;0.33;;;7.10;99.90;;;;;;5065481;28;20646;-80
2021/10/30 03:33:41;;;;;;;2.83;1.23;;;7.20;99.90;;;;;;5062498;28;20196;-79
2021/10/30 03:36:07;;;;;;;0.40;0.40;;;7.20;99.90;;;;;;5055214;28;20181;-80
2021/10/30 03:38:33;;;;;;;0.27;0.27;;;7.30;99.90;;;;;;5061462;28;20208;-80
2021/10/30 03:40:59;;;;;;;0.73;0.73;;;7.40;99.90;;;;;;5063282;28;20653;-80
2021/10/30 03:43:24;;;;;;;6.43;1.40;;;7.40;99.90;;;;;;5066961;28;20203;-80
2021/10/30 03:45:50;;;;;;;1.23;1.17;;;7.40;99.90;;;;;;5046465;28;20192;-80
2021/10/30 03:48:20;;;;;;;1.00;0.63;;;7.40;99.90;;;;;;5056248;28;20230;-80
2021/10/30 03:50:47;;;;;;;0.70;0.70;;;7.30;99.90;;;;;;5057820;28;20178;-80
2021/10/30 03:53:12;;;;;;;2.10;0.43;;;7.30;99.90;;;;;;5068882;28;20174;-81
2021/10/30 03:55:38;;;;;;;0.20;0.20;;;7.20;99.90;;;;;;5063004;28;20182;-80
2021/10/30 03:58:05;;;;;;;0.90;0.87;;;7.20;99.90;;;;;;5067910;28;20207;-80
2021/10/30 04:00:30;;;;;;;0.70;0.67;;;7.20;99.90;;;;;;5054175;28;20184;-80
2021/10/30 04:02:56;;;;;;;0.47;0.47;;;6.80;99.90;;;;;;5068099;28;20216;-80
2021/10/30 04:05:23;;;;;;;1.13;0.83;;;6.50;99.90;;;;;;5055713;28;20240;-79
2021/10/30 04:07:49;;;;;;;1.50;1.17;;;6.20;99.90;;;;;;5068277;28;20669;-80
2021/10/30 04:10:14;;;;;;;4.00;1.80;;;6.00;99.90;;;;;;5064232;28;20193;-80
2021/10/30 04:12:40;;;;;;;1.37;1.27;;;5.80;99.90;;;;;;5067059;28;20184;-79
2021/10/30 04:15:07;;;;;;;1.80;1.43;;;5.80;99.90;;;;;;5059873;28;20169;-81
2021/10/30 04:17:32;;;;;;;1.07;0.77;;;5.90;99.90;;;;;;5059613;28;20647;-81
2021/10/30 04:19:58;;;;;;;7.53;0.87;;;5.90;99.90;;;;;;5070537;28;20196;-79
2021/10/30 04:22:24;;;;;;;0.90;0.83;;;6.00;99.90;;;;;;5041633;28;20254;-79
2021/10/30 04:24:49;;;;;;;0.77;0.77;;;6.00;99.90;;;;;;5053753;28;20181;-79
2021/10/30 04:27:15;;;;;;;0.80;0.70;;;6.10;99.90;;;;;;5062629;28;20181;-81
2021/10/30 04:29:41;;;;;;;0.40;0.37;;;6.10;99.90;;;;;;5049736;28;20222;-79
2021/10/30 04:32:08;;;;;;;0.43;0.43;;;6.10;99.90;;;;;;5048062;28;20265;-80
2021/10/30 04:37:17;;;;;;;0.93;0.80;;;6.10;99.90;;;;;;5052854;28;20650;-80
2021/10/30 04:39:44;;;;;;;0.30;0.30;;;6.10;99.90;;;;;;5043633;28;20244;-79
2021/10/30 04:42:09;;;;;;;1.80;0.90;;;6.10;99.90;;;;;;5061744;28;20187;-79
2021/10/30 04:44:35;;;;;;;0.47;0.47;;;6.00;99.90;;;;;;5054517;28;20186;-79
2021/10/30 04:47:01;;;;;;;0.57;0.57;;;6.00;99.90;;;;;;5056979;28;20560;-80
2021/10/30 04:49:27;;;;;;;1.00;0.70;;;6.20;99.90;;;;;;5059259;28;20197;-79
2021/10/30 04:51:53;;;;;;;0.67;0.63;;;6.50;99.90;;;;;;5060218;28;20804;-79
2021/10/30 04:54:18;;;;;;;0.57;0.50;;;6.60;99.90;;;;;;5052952;28;20267;-79
2021/10/30 04:56:44;;;;;;;0.63;0.40;;;6.80;99.90;;;;;;5050584;28;20189;-79
2021/10/30 04:59:09;;;;;;;4.50;0.83;;;6.90;99.90;;;;;;5061950;28;20210;-79
2021/10/30 05:01:35;;;;;;;1.80;1.50;;;7.00;99.90;;;;;;5056184;28;20183;-82
2021/10/30 05:04:00;;;;;;;3.47;1.30;;;7.00;99.90;;;;;;5052080;28;20213;-80
2021/10/30 05:06:26;;;;;;;3.93;1.40;;;7.10;99.90;;;;;;5046008;28;21758;-81
2021/10/30 05:08:52;;;;;;;0.67;0.67;;;7.10;99.90;;;;;;5065392;28;20205;-80
2021/10/30 05:11:17;;;;;;;1.43;0.57;;;7.20;99.90;;;;;;5062052;28;20268;-80
2021/10/30 05:13:43;;;;;;;0.47;0.47;;;7.10;99.90;;;;;;5046530;28;20194;-81
2021/10/30 05:16:11;;;;;;;1.47;1.33;;;7.20;99.90;;;;;;5059139;28;20247;-81
2021/10/30 05:18:37;;;;;;;0.60;0.60;;;7.20;99.90;;;;;;5067709;28;20209;-81
2021/10/30 05:21:02;;;;;;;1.37;0.83;;;7.20;99.90;;;;;;5067722;28;20181;-81
2021/10/30 05:23:28;;;;;;;0.70;0.43;;;7.20;99.90;;;;;;5070407;28;20201;-79
2021/10/30 05:25:53;;;;;;;0.37;0.37;;;7.30;99.90;;;;;;5058032;28;20773;-80
2021/10/30 05:28:22;;;;;;;0.40;0.40;;;7.40;99.90;;;;;;5057826;28;20244;-80
2021/10/30 05:30:49;;;;;;;2.77;1.37;;;7.30;99.90;;;;;;5051053;28;20646;-80
2021/10/30 05:33:14;;;;;;;1.17;0.40;;;7.30;99.90;;;;;;5063641;28;20183;-80
2021/10/30 05:35:40;;;;;;;0.33;0.30;;;7.30;99.90;;;;;;5060612;28;20189;-80
2021/10/30 05:38:05;;;;;;;1.23;1.13;;;7.30;99.90;;;;;;5045742;28;20172;-80
2021/10/30 05:40:34;;;;;;;0.30;0.30;;;7.40;99.90;;;;;;5062279;28;20241;-80
2021/10/30 05:42:59;;;;;;;0.37;0.37;;;7.40;99.90;;;;;;5036554;28;20206;-80
2021/10/30 05:45:25;;;;;;;1.13;0.90;;;7.30;99.90;;;;;;5059710;28;20688;-81
2021/10/30 05:47:51;;;;;;;0.97;0.50;;;7.30;99.90;;;;;;5058585;28;20703;-81
2021/10/30 05:50:16;;;;;;;0.70;0.57;;;7.40;99.90;;;;;;5063432;28;20193;-81
2021/10/30 05:52:42;;;;;;;0.80;0.80;;;7.30;99.90;;;;;;5056176;28;20213;-82
2021/10/30 05:55:08;;;;;;;1.73;1.03;;;6.80;99.90;;;;;;5045837;28;20189;-80
2021/10/30 05:57:35;;;;;;;0.57;0.57;;;6.70;99.90;;;;;;5041986;28;20320;-80
2021/10/30 06:00:00;;;;;;;1.97;1.13;;;6.50;99.90;;;;;;5048154;28;20216;-81
2021/10/30 06:02:26;;;;;;;4.43;1.23;;;6.20;99.90;;;;;;5049917;28;20186;-81
2021/10/30 06:04:54;;;;;;;1.07;1.03;;;5.90;99.90;;;;;;5073700;28;20181;-81
2021/10/30 06:07:19;;;;;;;1.30;1.07;;;5.90;99.90;;;;;;5050030;28;20662;-81
2021/10/30 06:09:45;;;;;;;1.23;0.80;;;6.00;99.90;;;;;;5049761;28;20197;-81
2021/10/30 06:12:11;;;;;;;2.00;0.93;;;6.00;99.90;;;;;;5042187;28;20245;-81
2021/10/30 06:14:37;;;;;;;0.60;0.60;;;6.00;99.90;;;;;;5044614;28;20196;-81
2021/10/30 06:17:03;;;;;;;1.90;1.70;;;6.00;99.90;;;;;;5050380;28;20654;-81
2021/10/30 06:19:28;;;;;;;0.83;0.73;;;6.10;99.90;;;;;;5045520;28;20255;-81
2021/10/30 06:21:54;;;;;;;0.70;0.47;;;6.20;99.90;;;;;;5046832;28;20178;-81
2021/10/30 06:24:20;;;;;;;1.27;0.87;;;6.20;99.90;;;;;;5044441;28;21051;-80
2021/10/30 06:26:46;;;;;;;0.60;0.57;;;6.40;99.90;;;;;;5045323;28;20271;-80
2021/10/30 06:29:11;;;;;;;0.97;0.83;;;6.40;99.90;;;;;;5041354;28;20210;-81
2021/10/30 06:31:37;;;;;;;1.37;1.27;;;6.40;99.90;;;;;;5039556;28;20220;-81
2021/10/30 06:34:03;;;;;;;0.87;0.87;;;6.40;99.90;;;;;;5056788;28;20178;-80
2021/10/30 06:36:28;;;;;;;0.77;0.77;;;6.40;99.90;;;;;;5045781;28;20538;-80
2021/10/30 06:38:54;;;;;;;0.83;0.83;;;6.40;99.90;;;;;;5041631;28;20209;-80
2021/10/30 06:41:20;;;;;;;1.83;1.13;;;6.40;99.90;;;;;;5035622;28;20269;-82
2021/10/30 06:43:45;;;;;;;0.70;0.70;;;6.40;99.90;;;;;;5053084;28;20220;-81
2021/10/30 06:46:11;;;;;;;2.47;1.33;;;6.30;99.90;;;;;;5045717;28;20690;-81
2021/10/30 06:48:37;;;;;;;1.23;1.13;;;6.40;99.90;;;;;;5039889;28;20258;-80
2021/10/30 06:51:05;;;;;;;0.90;0.87;;;6.50;99.90;;;;;;5049735;28;20181;-80
2021/10/30 06:53:31;;;;;;;3.30;1.13;;;6.50;99.90;;;;;;5042360;28;20821;-81
2021/10/30 06:55:58;;;;;;;4.60;2.43;;;6.40;99.90;;;;;;5047937;28;20209;-81
2021/10/30 06:58:28;;;;;;;0.83;0.83;;;6.40;99.90;;;;;;5051030;28;20237;-81
2021/10/30 07:00:54;;;;;;;1.83;1.17;;;6.40;99.90;;;;;;5056362;28;20640;-80
2021/10/30 07:03:20;;;;;;;1.87;0.93;;;6.40;99.90;;;;;;5062498;28;20272;-81
2021/10/30 07:05:46;;;;;;;1.70;1.27;;;6.40;99.90;;;;;;5053916;28;20184;-81
2021/10/30 07:08:11;;;;;;;0.73;0.40;;;6.40;99.90;;;;;;5049057;28;20178;-80
2021/10/30 07:10:37;;;;;;;2.13;1.00;;;6.50;99.90;;;;;;5050345;28;20182;-81
2021/10/30 07:13:02;;;;;;;6.13;1.23;;;6.50;99.90;;;;;;5045452;28;20214;-79
2021/10/30 07:15:28;;;;;;;2.50;1.10;;;6.60;99.90;;;;;;5050477;28;20182;-80
2021/10/30 07:17:53;;;;;;;1.23;1.00;;;6.60;99.90;;;;;;5059478;28;21248;-80
2021/10/30 07:20:19;;;;;;;2.17;0.80;;;6.70;99.90;;;;;;5063139;28;20208;-80
2021/10/30 07:22:47;;;;;;;2.00;1.67;;;6.60;99.90;;;;;;5065191;28;20200;-79
2021/10/30 07:25:15;;;;;;;0.70;0.57;;;6.60;99.90;;;;;;5065200;28;20185;-80
2021/10/30 07:27:42;;;;;;;0.57;0.53;;;6.70;99.90;;;;;;5065059;28;20212;-80
2021/10/30 07:30:09;;;;;;;3.03;1.20;;;6.70;99.90;;;;;;5055505;28;20603;-80
2021/10/30 07:32:35;;;;;;;1.90;1.10;;;6.70;99.90;;;;;;5066979;28;20590;-80
2021/10/30 07:35:02;;;;;;;0.40;0.40;;;6.70;99.90;;;;;;5065162;28;20180;-80
2021/10/30 07:37:28;;;;;;;0.70;0.70;;;6.90;99.90;;;;;;5052164;28;20624;-80
2021/10/30 07:39:54;;;;;;;0.90;0.90;;;6.90;99.90;;;;;;5066239;28;20204;-80
2021/10/30 07:42:20;;;;;;;0.80;0.80;;;7.10;99.90;;;;;;5067182;28;20674;-80
2021/10/30 07:44:46;;;;;;;0.80;0.80;;;7.20;99.90;;;;;;5069442;28;20191;-80
2021/10/30 07:47:12;;;;;;;0.80;0.80;;;7.20;99.90;;;;;;5062711;28;20231;-80
2021/10/30 07:49:39;;;;;;;0.57;0.57;;;7.40;99.90;;;;;;5062553;28;20228;-80
2021/10/30 07:52:06;;;;;;;0.37;0.23;;;7.60;99.90;;;;;;5054696;28;20225;-80
2021/10/30 07:54:33;;;;;;;1.20;0.90;;;7.90;99.90;;;;;;5093018;28;20185;-80
2021/10/30 07:57:01;;;;;;;0.60;0.60;;;8.00;99.90;;;;;;5065314;28;20181;-80
2021/10/30 07:59:26;;;;;;;0.93;0.73;;;8.00;99.90;;;;;;5069767;28;20205;-80
2021/10/30 08:01:52;;;;;;;0.43;0.40;;;8.00;99.90;;;;;;5062523;28;20193;-80
2021/10/30 08:04:20;;;;;;;0.77;0.77;;;7.80;99.90;;;;;;5064491;28;20204;-80
2021/10/30 08:06:45;;;;;;;7.53;1.97;;;7.80;99.90;;;;;;5066248;28;20708;-80
2021/10/30 08:09:11;;;;;;;1.60;0.70;;;7.80;99.90;;;;;;5058970;28;20200;-81
2021/10/30 08:11:36;;;;;;;0.83;0.60;;;7.80;99.90;;;;;;5066926;28;20553;-80
2021/10/30 08:14:03;;;;;;;0.57;0.57;;;8.10;99.90;;;;;;5067751;28;20174;-80
2021/10/30 08:16:29;;;;;;;1.53;0.90;;;8.00;99.90;;;;;;5064807;28;20612;-80
2021/10/30 08:18:55;;;;;;;0.87;0.87;;;8.00;99.90;;;;;;5067653;28;20284;-80
2021/10/30 08:21:21;;;;;;;6.43;1.00;;;8.10;99.90;;;;;;5062556;28;20177;-80
2021/10/30 08:23:47;;;;;;;1.37;0.60;;;8.00;99.90;;;;;;5069118;28;20566;-81
2021/10/30 08:26:12;;;;;;;1.70;1.60;;;8.10;99.90;;;;;;5063937;28;20180;-80
2021/10/30 08:28:38;;;;;;;0.30;0.30;;;8.30;99.90;;;;;;5060797;28;20274;-80
2021/10/30 08:31:04;;;;;;;1.23;0.70;;;8.40;99.90;;;;;;5064964;28;20178;-80
2021/10/30 08:33:29;;;;;;;0.90;0.87;;;8.60;99.90;;;;;;5067829;28;20173;-81
2021/10/30 08:35:55;;;;;;;1.37;1.27;;;8.70;99.90;;;;;;5062220;28;20169;-80
2021/10/30 08:38:21;;;;;;;2.13;1.13;;;8.30;99.90;;;;;;5056484;28;20270;-80
2021/10/30 08:40:46;;;;;;;1.00;0.70;;;8.00;99.90;;;;;;5056629;28;20187;-80
2021/10/30 08:43:20;;;;;;;1.10;1.10;;;7.90;99.90;;;;;;5063930;28;20193;-81
2021/10/30 08:45:47;;;;;;;0.80;0.80;;;7.70;99.90;;;;;;5064390;28;20669;-81
2021/10/30 08:48:13;;;;;;;1.03;0.90;;;7.90;99.90;;;;;;5066605;28;20174;-80
2021/10/30 08:50:39;;;;;;;1.83;0.53;;;8.00;99.90;;;;;;5063975;28;20257;-80
2021/10/30 08:53:05;;;;;;;0.40;0.40;;;8.20;99.90;;;;;;5063390;28;20863;-80
2021/10/30 08:55:31;;;;;;;1.27;1.23;;;8.50;99.90;;;;;;5061971;28;20603;-81
2021/10/30 08:58:06;;;;;;;1.70;1.13;;;8.60;99.90;;;;;;5064137;28;20174;-80
2021/10/30 09:00:36;;;;;;;0.50;0.50;;;8.80;99.90;;;;;;5061270;28;20243;-80
2021/10/30 09:03:04;;;;;;;1.00;0.90;;;8.70;99.90;;;;;;5067593;28;20280;-81
2021/10/30 09:05:31;;;;;;;3.10;1.27;;;8.80;99.90;;;;;;5069328;28;20173;-80
2021/10/30 09:07:59;;;;;;;0.90;0.90;;;8.70;99.90;;;;;;5053635;28;20165;-81
2021/10/30 09:10:32;;;;;;;2.30;0.80;;;8.80;99.90;;;;;;5059747;28;20292;-80
2021/10/30 09:13:02;;;;;;;0.87;0.87;;;9.00;99.90;;;;;;5067262;28;20178;-80
2021/10/30 09:15:47;;;;;;;1.13;1.07;;;9.00;99.90;;;;;;5067637;28;20200;-80
2021/10/30 09:18:21;;;;;;;2.90;0.97;;;9.20;99.90;;;;;;5056594;28;20176;-81
2021/10/30 09:20:48;;;;;;;0.40;0.40;;;9.20;99.90;;;;;;5061823;28;20552;-80
2021/10/30 09:23:15;;;;;;;0.67;0.67;;;8.90;99.90;;;;;;5061094;28;20658;-81
2021/10/30 09:26:20;;;;;;;1.50;0.63;;;8.70;99.90;;;;;;5066459;28;20685;-80
2021/10/30 09:28:54;;;;;;;0.40;0.40;;;8.80;99.90;;;;;;5044186;28;20217;-81
2021/10/30 09:31:28;;;;;;;1.13;1.00;;;9.10;99.90;;;;;;5052635;28;20170;-80
2021/10/30 09:34:01;;;;;;;1.70;0.47;;;9.10;99.90;;;;;;5047878;28;20190;-80
2021/10/30 09:36:33;;;;;;;1.63;1.23;;;9.30;99.90;;;;;;5053729;28;20181;-80
2021/10/30 09:39:03;;;;;;;1.13;1.13;;;9.30;99.90;;;;;;5096063;28;20354;-80
2021/10/30 09:41:30;;;;;;;1.17;0.30;;;9.50;99.90;;;;;;5061363;28;20197;-80
2021/10/30 09:44:03;;;;;;;0.93;0.87;;;9.50;99.90;;;;;;5057759;28;20679;-81
2021/10/30 09:46:47;;;;;;;0.83;0.83;;;9.60;99.90;;;;;;5057523;28;20191;-80
2021/10/30 09:49:24;;;;;;;0.77;0.60;;;9.70;99.90;;;;;;5049905;28;20709;-81
2021/10/30 09:51:55;;;;;;;0.50;0.50;;;9.80;99.90;;;;;;5060888;28;20263;-81
2021/10/30 09:54:35;;;;;;;2.00;1.80;;;9.70;99.90;;;;;;5063342;28;20677;-81
2021/10/30 09:57:01;;;;;;;0.60;0.53;;;9.40;99.90;;;;;;5064439;28;20251;-81
2021/10/30 09:59:30;;;;;;;1.30;1.13;;;9.30;99.90;;;;;;5057463;28;20589;-81
2021/10/30 10:01:56;;;;;;;1.47;0.77;;;9.10;99.90;;;;;;5054574;28;20681;-80
2021/10/30 10:04:22;;;;;;;0.53;0.53;;;9.00;99.90;;;;;;5061885;28;20212;-81
2021/10/30 10:06:49;;;;;;;5.70;1.27;;;8.50;99.90;;;;;;5056692;28;20191;-81
2021/10/30 10:09:19;;;;;;;2.13;0.70;;;8.80;99.90;;;;;;5051190;28;20294;-82
2021/10/30 10:11:46;;;;;;;0.33;0.33;;;8.90;99.90;;;;;;5046664;28;20190;-81
2021/10/30 10:14:14;;;;;;;0.90;0.50;;;9.00;99.90;;;;;;5055040;28;20277;-81
2021/10/30 10:16:39;;;;;;;1.23;1.13;;;9.20;99.90;;;;;;5045295;28;20190;-81
2021/10/30 10:19:05;;;;;;;0.77;0.60;;;9.00;99.90;;;;;;5048192;28;20203;-81
2021/10/30 10:21:36;;;;;;;1.60;1.27;;;9.10;99.90;;;;;;5062562;28;20213;-81
2021/10/30 10:24:11;;;;;;;0.80;0.60;;;9.00;99.90;;;;;;5046240;28;20197;-81
2021/10/30 10:26:45;;;;;;;3.20;2.37;;;8.60;99.90;;;;;;5052381;28;20250;-82
2021/10/30 10:29:13;;;;;;;6.00;1.63;;;8.20;99.90;;;;;;5049846;28;20212;-81
2021/10/30 10:31:51;;;;;;;2.97;1.23;;;8.50;99.90;;;;;;5052080;28;20186;-81
2021/10/30 10:34:20;;;;;;;0.83;0.83;;;8.90;99.90;;;;;;5062399;28;20185;-82
2021/10/30 10:36:47;;;;;;;2.47;1.43;;;9.10;99.90;;;;;;5056990;28;20552;-80
2021/10/30 10:39:20;;;;;;;3.00;0.90;;;9.40;99.90;;;;;;5069947;28;20205;-80
2021/10/30 10:41:48;;;;;;;0.97;0.97;;;9.60;99.90;;;;;;5047140;28;20564;-81
2021/10/30 10:44:36;;;;;;;0.80;0.67;;;9.70;99.90;;;;;;5039113;28;21914;-80
2021/10/30 10:47:03;;;;;;;1.23;1.20;;;9.80;99.90;;;;;;5034394;28;20189;-81
2021/10/30 10:52:14;;;;;;;1.80;1.67;;;9.80;99.90;;;;;;5061842;28;20188;-79
2021/10/30 10:54:55;;;;;;;2.23;1.70;;;9.50;99.90;;;;;;5056126;28;20180;-81
2021/10/30 10:57:23;;;;;;;0.73;0.37;;;9.50;99.90;;;;;;5061520;28;20191;-81
2021/10/30 11:00:15;;;;;;;2.80;1.37;;;9.40;99.90;;;;;;5052770;28;20204;-80
2021/10/30 11:02:51;;;;;;;0.40;0.40;;;8.90;99.90;;;;;;5093758;28;20249;-80
2021/10/30 11:05:23;;;;;;;1.30;1.03;;;9.20;99.90;;;;;;5061776;28;20178;-81
2021/10/30 11:07:48;;;;;;;0.93;0.90;;;9.30;99.90;;;;;;5056870;28;20552;-80
2021/10/30 11:10:30;;;;;;;1.43;1.00;;;9.30;99.90;;;;;;5052424;28;20282;-80
2021/10/30 11:13:01;;;;;;;2.03;1.80;;;9.20;99.90;;;;;;5063358;28;20174;-81
2021/10/30 11:15:29;;;;;;;2.00;1.37;;;9.20;99.90;;;;;;5066575;28;20275;-80
2021/10/30 11:18:05;;;;;;;1.33;1.23;;;8.90;99.90;;;;;;5068272;28;20183;-80
2021/10/30 11:21:02;;;;;;;1.60;1.17;;;8.70;99.90;;;;;;5059898;28;20243;-81
2021/10/30 11:23:30;;;;;;;2.07;1.57;;;8.80;99.90;;;;;;5049287;28;20202;-81
2021/10/30 11:26:10;;;;;;;1.30;1.20;;;8.80;99.90;;;;;;5064924;28;20192;-81
2021/10/30 11:28:39;;;;;;;1.73;1.60;;;8.90;99.90;;;;;;5066478;28;20213;-80
2021/10/30 11:31:19;;;;;;;0.57;0.53;;;9.00;99.90;;;;;;5070198;28;20185;-80
2021/10/30 11:33:56;;;;;;;0.50;0.50;;;9.20;99.90;;;;;;5065473;28;20647;-80
2021/10/30 11:36:21;;;;;;;3.17;0.90;;;9.60;99.90;;;;;;5059871;28;20187;-80
2021/10/30 11:38:47;;;;;;;2.03;1.30;;;9.60;99.90;;;;;;5059833;28;20570;-81
2021/10/30 11:41:16;;;;;;;2.07;1.97;;;9.70;99.90;;;;;;5057127;28;20185;-80
2021/10/30 11:43:43;;;;;;;2.17;1.23;;;9.70;99.90;;;;;;5053265;28;20328;-80
2021/10/30 11:46:11;;;;;;;3.33;1.17;;;10.00;99.90;;;;;;5069583;28;20647;-80
2021/10/30 11:48:42;;;;;;;1.37;0.80;;;9.70;99.90;;;;;;5061112;28;20224;-80
2021/10/30 11:51:11;;;;;;;0.80;0.53;;;9.90;99.90;;;;;;5054053;28;20589;-80
2021/10/30 11:53:38;;;;;;;5.87;1.30;;;9.70;99.90;;;;;;5052023;28;20259;-81
2021/10/30 11:56:11;;;;;;;1.00;1.00;;;9.90;99.90;;;;;;5046228;28;20261;-81
2021/10/30 11:58:48;;;;;;;3.53;2.17;;;10.10;99.90;;;;;;5053201;28;20567;-81
2021/10/30 12:01:33;;;;;;;1.93;1.03;;;10.00;99.90;;;;;;5065997;28;20541;-80
2021/10/30 12:04:01;;;;;;;1.27;0.57;;;9.90;99.90;;;;;;5059468;28;20609;-80
2021/10/30 12:06:29;;;;;;;0.80;0.70;;;10.00;99.90;;;;;;5051136;28;20581;-81
2021/10/30 12:08:57;;;;;;;1.37;0.80;;;10.20;99.90;;;;;;5050962;28;20195;-81
2021/10/30 12:11:26;;;;;;;2.77;1.37;;;10.20;99.90;;;;;;5051542;28;20184;-80
2021/10/30 12:13:56;;;;;;;2.50;1.33;;;10.30;99.90;;;;;;5045175;28;20687;-81
2021/10/30 12:16:22;;;;;;;0.77;0.77;;;10.40;99.90;;;;;;5051255;28;20203;-81
2021/10/30 12:18:48;;;;;;;3.23;1.47;;;10.30;99.90;;;;;;5046904;28;20570;-81
2021/10/30 12:21:14;;;;;;;3.50;1.77;;;10.30;99.90;;;;;;5044273;28;20184;-82
2021/10/30 12:24:04;;;;;;;1.17;1.07;;;10.40;99.90;;;;;;5048156;28;20620;-82
2021/10/30 12:26:33;;;;;;;0.50;0.50;;;9.70;99.90;;;;;;5046758;28;20247;-81
2021/10/30 12:29:15;;;;;;;0.90;0.70;;;9.70;99.90;;;;;;5050737;28;20208;-81
2021/10/30 12:31:54;;;;;;;2.00;1.40;;;9.80;99.90;;;;;;5045445;28;20253;-80
2021/10/30 12:34:26;;;;;;;0.97;0.97;;;9.50;99.90;;;;;;5057828;28;20234;-81
2021/10/30 12:36:56;;;;;;;5.20;1.07;;;9.30;99.90;;;;;;5065382;28;20679;-81
2021/10/30 12:39:23;;;;;;;2.70;1.13;;;9.00;99.90;;;;;;5050223;28;20204;-80
2021/10/30 12:42:06;;;;;;;4.47;1.53;;;8.80;99.90;;;;;;5048398;28;20192;-81
2021/10/30 12:44:37;;;;;;;1.37;1.07;;;8.90;99.90;;;;;;5040640;28;20197;-82
2021/10/30 12:47:14;;;;;;;2.10;1.10;;;8.90;99.90;;;;;;5053611;28;20185;-81
2021/10/30 12:49:43;;;;;;;1.07;0.77;;;9.10;99.90;;;;;;5044218;28;20281;-81
2021/10/30 12:52:13;;;;;;;1.47;1.17;;;8.80;99.90;;;;;;5042686;28;20177;-82
2021/10/30 12:54:43;;;;;;;1.10;0.77;;;8.90;99.90;;;;;;5037909;28;20216;-82
2021/10/30 12:57:25;;;;;;;1.30;1.00;;;9.00;99.90;;;;;;5056568;28;20246;-82
2021/10/30 13:00:05;;;;;;;0.60;0.50;;;9.10;99.90;;;;;;5057901;28;20215;-81
2021/10/30 13:02:31;;;;;;;0.83;0.83;;;9.30;99.90;;;;;;5047620;28;20190;-81
2021/10/30 13:04:57;;;;;;;0.97;0.90;;;9.30;99.90;;;;;;5044155;28;20190;-82
2021/10/30 13:07:23;;;;;;;0.77;0.77;;;9.40;99.90;;;;;;5058735;28;20247;-82